Webcam more information Webcam


altri nostri siti meteo:

RISCHIO INCENDIRischio incendi

Pomeziameteo 1Sito sul meteo

Pomeziameteo DashboardSito sul meteo

Caput FrigorisSito sul meteo

BarcellonameteoSito sul meteo

MeteoipassiSito sul meteo

TortoretometeolidoSito sul meteo

CastelnuovovomanometeoSito sul meteo

MeteogonzagaSito sul meteo

MeteonetworkInvio dai a Meteonetwork



Non è richiesta alcuna attenzione speciale.    Non sono presenti avvisi meteorologici di particolare rilevanza

Report METAR

   
LIRV - Viterbo (it-Mil), Italy
Distanza dalla stazione: W 4 km
Dati ricevuti: 10-04-2020 19:55
Sereno  
Sereno  
   Vento: S 13 km/h
Vento: S 13 km/h
Temperatura: 16°C
P.to Rugiada: 9°C
Umidita: 63%
Barometro: 1021 hPa
Visibilita: oltre 10 km
dettagli cloud: Sereno
LIRV 101755Z 21007KT CAVOK 16/09 Q1021
LIQN - Rieti, Italy
Distanza dalla stazione: E 59 km
Dati ricevuti: 10-04-2020 19:50
Sereno  
Sereno  
   Vento: Variabile 5.6 km/h
Vento: Variabile 5.6 km/h
Temperatura: 17°C
P.to Rugiada: 5°C
Umidita: 45%
Barometro: 1020 hPa
Visibilita: oltre 10 km
dettagli cloud: Sereno
LIQN 101750Z VRB03KT CAVOK 17/05 Q1020
LIRU - Rome/Urbe (it-Af, Italy
Distanza dalla stazione: S 61 km
Dati ricevuti: 10-04-2020 19:50
Sereno  
Sereno  
   Vento: S 9.3 km/h
Vento: S 9.3 km/h
Temperatura: 16°C
P.to Rugiada: 8°C
Umidita: 59%
Barometro: 1021 hPa
Visibilita: oltre 10 km
dettagli cloud: Sereno
LIRU 101750Z 21005KT CAVOK 16/08 Q1021
LIRG - Guidonia (it-Afb, Italy
Distanza dalla stazione: SE 68 km
Dati ricevuti: 10-04-2020 19:55
Sereno  
Sereno  
   Vento: S 5.6 km/h
Vento: S 5.6 km/h
Temperatura: 16°C
P.to Rugiada: 6°C
Umidita: 52%
Barometro: 1021 hPa
Visibilita: oltre 10 km
dettagli cloud: Sereno
LIRG 101755Z 21003KT CAVOK 16/06 Q1021
LIRK - Terminillo Mount, Italy
Distanza dalla stazione: E 70 km
Dati ricevuti: 10-04-2020 19:55
  
  
   Vento: NO 18.5 km/h
Vento: NO 18.5 km/h
Temperatura: 11°C
P.to Rugiada: -4°C
Umidita: 35%
Barometro: 1025 hPa
LIRK 101755Z AUTO 32010KT //// 11/M04 Q1025
 

Script sviluppato da  Saratoga-weather.org Adattato per il modello da  Weerstation Leuven

Strumentazione usata:

Stazione meteo
Davis VP2

Programma gestore dati meteo
WVIEW

Server per i dati meteo
WDS-5

Davis VP2

WVIEW

WDS-5